createdAt,value
2023-03-28T00:00:29.969Z,0.52
2023-03-28T00:03:14.537Z,0.80
2023-03-28T00:06:00.758Z,0.77
2023-03-28T00:08:45.877Z,0.65
2023-03-28T00:11:29.889Z,0.80
2023-03-28T00:14:14.216Z,0.60
2023-03-28T00:16:57.194Z,0.55
2023-03-28T00:19:40.577Z,0.50
2023-03-28T00:22:23.363Z,0.60
2023-03-28T00:25:06.610Z,0.63
2023-03-28T00:27:50.649Z,0.77
2023-03-28T00:30:33.320Z,0.50
2023-03-28T00:33:17.287Z,0.45
2023-03-28T00:36:00.140Z,0.60
2023-03-28T00:38:42.957Z,0.57
2023-03-28T00:41:26.593Z,0.47
2023-03-28T00:44:27.089Z,0.50
2023-03-28T00:47:15.342Z,0.40
2023-03-28T00:50:02.606Z,0.60
2023-03-28T00:52:49.683Z,0.40
2023-03-28T00:55:35.681Z,0.60
2023-03-28T00:58:23.173Z,0.68
2023-03-28T01:01:08.535Z,0.70
2023-03-28T01:03:56.278Z,0.43
2023-03-28T01:06:41.616Z,0.50
2023-03-28T01:09:28.198Z,0.40
2023-03-28T01:12:11.991Z,0.50
2023-03-28T01:14:56.492Z,0.35
2023-03-28T01:17:41.439Z,0.50
2023-03-28T01:20:35.948Z,0.50
2023-03-28T01:23:39.299Z,0.47
2023-03-28T01:26:42.977Z,0.40
2023-03-28T01:29:54.742Z,0.40
2023-03-28T01:32:55.555Z,0.30
2023-03-28T01:35:56.242Z,0.40
2023-03-28T01:38:42.226Z,0.40
2023-03-28T01:41:29.989Z,0.70
2023-03-28T01:44:17.221Z,0.40
2023-03-28T01:47:02.423Z,0.50
2023-03-28T01:49:47.961Z,0.43
2023-03-28T01:52:35.479Z,0.38
2023-03-28T01:55:22.882Z,0.55
2023-03-28T01:58:08.381Z,0.30
2023-03-28T02:01:05.439Z,0.30
2023-03-28T02:03:50.293Z,0.40
2023-03-28T02:06:48.782Z,0.50
2023-03-28T02:09:37.625Z,0.50
2023-03-28T02:12:48.325Z,0.40
2023-03-28T02:15:51.212Z,0.38
2023-03-28T02:18:43.491Z,0.50
2023-03-28T02:21:53.312Z,0.28
2023-03-28T02:24:43.465Z,0.45
2023-03-28T02:27:47.087Z,0.50
2023-03-28T02:30:51.717Z,0.50
2023-03-28T02:33:38.867Z,0.22
2023-03-28T02:36:34.375Z,0.30
2023-03-28T02:39:29.864Z,0.30
2023-03-28T02:42:22.996Z,0.35
2023-03-28T02:45:17.184Z,0.57
2023-03-28T02:48:06.387Z,0.50
2023-03-28T02:50:53.571Z,0.32
2023-03-28T02:53:44.588Z,0.43
2023-03-28T02:56:31.925Z,0.30
2023-03-28T02:59:26.515Z,0.40
2023-03-28T03:02:11.558Z,0.38
2023-03-28T03:04:57.584Z,0.60
2023-03-28T03:07:40.381Z,0.20
2023-03-28T03:10:23.392Z,0.40
2023-03-28T03:13:06.841Z,0.32
2023-03-28T03:15:50.072Z,0.40
2023-03-28T03:18:39.921Z,0.43
2023-03-28T03:21:23.656Z,0.30
2023-03-28T03:24:06.581Z,0.30
2023-03-28T03:26:49.298Z,0.50
2023-03-28T03:29:38.844Z,0.50
2023-03-28T03:32:26.729Z,0.60
2023-03-28T03:35:20.825Z,0.35
2023-03-28T03:38:04.114Z,0.40
2023-03-28T03:40:46.819Z,0.60
2023-03-28T03:43:30.588Z,0.50
2023-03-28T03:46:13.281Z,0.60
2023-03-28T03:48:55.884Z,0.43
2023-03-28T03:51:40.451Z,0.50
2023-03-28T03:54:23.347Z,0.60
2023-03-28T03:57:06.071Z,0.60
2023-03-28T03:59:49.075Z,0.40
2023-03-28T04:02:33.500Z,0.40
2023-03-28T04:05:17.375Z,0.60
2023-03-28T04:08:05.944Z,0.40
2023-03-28T04:10:52.298Z,0.43
2023-03-28T04:13:35.175Z,0.50
2023-03-28T04:16:20.845Z,0.50
2023-03-28T04:19:13.894Z,0.47
2023-03-28T04:21:59.219Z,0.40
2023-03-28T04:24:44.583Z,0.52
2023-03-28T04:27:33.858Z,0.50
2023-03-28T04:30:17.687Z,0.68
2023-03-28T04:33:18.983Z,0.40
2023-03-28T04:36:02.323Z,0.60
2023-03-28T04:38:46.510Z,0.50
2023-03-28T04:42:03.294Z,0.50
2023-03-28T04:45:09.651Z,0.40
2023-03-28T04:47:54.040Z,0.60
2023-03-28T04:50:38.367Z,0.65
2023-03-28T04:53:21.459Z,0.52
2023-03-28T04:56:23.449Z,0.70
2023-03-28T04:59:08.177Z,0.60
2023-03-28T05:01:51.060Z,0.70
2023-03-28T05:04:53.330Z,0.50
2023-03-28T05:07:36.772Z,0.52
2023-03-28T05:10:20.015Z,0.60
2023-03-28T05:13:04.074Z,0.57
2023-03-28T05:15:55.966Z,0.68
2023-03-28T05:18:51.365Z,0.73
2023-03-28T05:21:40.666Z,0.70
2023-03-28T05:24:23.342Z,0.52
2023-03-28T05:27:07.128Z,0.70
2023-03-28T05:29:49.745Z,0.65
2023-03-28T05:32:34.986Z,0.80
2023-03-28T05:35:18.304Z,1.00
2023-03-28T05:38:02.484Z,0.80
2023-03-28T05:40:45.387Z,0.60
2023-03-28T05:43:28.019Z,0.70
2023-03-28T05:46:10.872Z,0.90
2023-03-28T05:48:58.828Z,0.70
2023-03-28T05:51:41.443Z,0.77
2023-03-28T05:54:24.999Z,0.82
2023-03-28T05:57:08.395Z,0.80
2023-03-28T05:59:51.558Z,1.00
2023-03-28T06:02:36.333Z,1.38
2023-03-28T06:05:20.616Z,1.00
2023-03-28T06:08:03.369Z,1.00
2023-03-28T06:10:46.567Z,1.00
2023-03-28T06:13:36.309Z,1.08
2023-03-28T06:16:20.270Z,1.00
2023-03-28T06:19:18.258Z,1.10
2023-03-28T06:22:08.038Z,1.02
2023-03-28T06:24:51.024Z,1.00
2023-03-28T06:27:40.829Z,1.10
2023-03-28T06:30:23.453Z,0.90
2023-03-28T06:33:07.791Z,1.10
2023-03-28T06:35:51.448Z,1.20
2023-03-28T06:38:35.643Z,1.17
2023-03-28T06:41:18.268Z,1.48
2023-03-28T06:44:00.934Z,1.20
2023-03-28T06:47:03.752Z,1.20
2023-03-28T06:49:46.814Z,1.08
2023-03-28T06:52:44.870Z,1.00
2023-03-28T06:55:29.126Z,1.00
2023-03-28T06:58:12.307Z,0.98
2023-03-28T07:01:04.283Z,1.02
2023-03-28T07:03:59.659Z,1.20
2023-03-28T07:06:43.072Z,0.95
2023-03-28T07:09:25.751Z,1.27
2023-03-28T07:12:16.609Z,0.98
2023-03-28T07:14:59.574Z,1.38
2023-03-28T07:17:42.280Z,1.00
2023-03-28T07:20:27.795Z,1.42
2023-03-28T07:23:11.144Z,0.98
2023-03-28T07:25:55.052Z,1.08
2023-03-28T07:28:39.154Z,1.45
2023-03-28T07:31:22.179Z,1.38
2023-03-28T07:34:04.848Z,1.10
2023-03-28T07:36:47.470Z,1.02
2023-03-28T07:39:39.850Z,0.93
2023-03-28T07:42:27.792Z,1.13
2023-03-28T07:45:12.631Z,1.10
2023-03-28T07:47:55.350Z,0.98
2023-03-28T07:50:38.528Z,1.00
2023-03-28T07:53:21.965Z,1.00
2023-03-28T07:56:05.199Z,0.90
2023-03-28T07:59:04.432Z,0.95
2023-03-28T08:01:48.555Z,0.90
2023-03-28T08:04:33.795Z,1.08
2023-03-28T08:07:21.529Z,1.00
2023-03-28T08:10:06.210Z,0.93
2023-03-28T08:12:49.016Z,1.02
2023-03-28T08:15:31.721Z,1.13
2023-03-28T08:18:20.731Z,0.77
2023-03-28T08:21:04.478Z,1.13
2023-03-28T08:23:49.527Z,0.85
2023-03-28T08:27:01.868Z,1.10
2023-03-28T08:29:44.836Z,0.90
2023-03-28T08:32:27.819Z,1.00
2023-03-28T08:35:13.514Z,1.00
2023-03-28T08:37:57.375Z,0.95
2023-03-28T08:40:41.911Z,0.93
2023-03-28T08:43:37.996Z,0.73
2023-03-28T08:46:22.711Z,0.90
2023-03-28T08:49:07.717Z,0.85
2023-03-28T08:51:54.009Z,0.80
2023-03-28T08:54:42.290Z,0.80
2023-03-28T08:57:28.414Z,0.70
2023-03-28T09:00:15.032Z,0.60
2023-03-28T09:02:58.301Z,0.70
2023-03-28T09:05:45.628Z,0.90
2023-03-28T09:08:37.685Z,0.73
2023-03-28T09:11:26.546Z,1.10
2023-03-28T09:14:18.477Z,1.00
2023-03-28T09:17:04.497Z,0.77
2023-03-28T09:19:53.326Z,0.77
2023-03-28T09:23:19.351Z,0.93
2023-03-28T09:26:24.476Z,0.77
2023-03-28T09:29:14.714Z,0.80
2023-03-28T09:31:59.011Z,0.65
2023-03-28T09:34:45.603Z,0.55
2023-03-28T09:37:31.096Z,0.70
2023-03-28T09:40:16.538Z,0.60
2023-03-28T09:43:26.613Z,0.93
2023-03-28T09:46:34.641Z,0.70
2023-03-28T09:49:40.401Z,0.70
2023-03-28T09:52:26.545Z,0.60
2023-03-28T09:55:15.663Z,0.50
2023-03-28T09:58:06.796Z,0.70
2023-03-28T10:01:07.159Z,0.70
2023-03-28T10:04:19.495Z,0.88
2023-03-28T10:07:34.463Z,0.93
2023-03-28T10:10:31.750Z,0.70
2023-03-28T10:13:21.340Z,0.70
2023-03-28T10:16:07.957Z,0.75
2023-03-28T10:19:11.542Z,0.70
2023-03-28T10:22:02.524Z,1.10
2023-03-28T10:24:48.928Z,0.80
2023-03-28T10:27:32.711Z,0.90
2023-03-28T10:30:23.467Z,0.93
2023-03-28T10:33:22.010Z,0.85
2023-03-28T10:36:29.426Z,0.90
2023-03-28T10:39:22.280Z,0.90
2023-03-28T10:42:24.841Z,0.70
2023-03-28T10:45:36.036Z,0.90
2023-03-28T10:48:21.943Z,0.93
2023-03-28T10:51:08.839Z,0.60
2023-03-28T10:54:00.157Z,0.73
2023-03-28T10:56:52.876Z,0.82
2023-03-28T10:59:46.805Z,0.57
2023-03-28T11:02:37.759Z,0.70
2023-03-28T11:05:34.849Z,0.55
2023-03-28T11:08:33.843Z,0.73
2023-03-28T11:11:29.602Z,0.63
2023-03-28T11:14:19.449Z,1.02
2023-03-28T11:17:05.437Z,0.70
2023-03-28T11:20:19.715Z,0.70
2023-03-28T11:23:18.886Z,0.50
2023-03-28T11:26:43.488Z,0.70
2023-03-28T11:29:45.986Z,0.70
2023-03-28T11:32:38.648Z,0.73
2023-03-28T11:35:26.640Z,0.70
2023-03-28T11:38:13.429Z,0.55
2023-03-28T11:41:00.626Z,0.70
2023-03-28T11:44:03.786Z,0.60
2023-03-28T11:46:50.084Z,0.68
2023-03-28T11:49:34.541Z,0.50
2023-03-28T11:52:19.695Z,0.60
2023-03-28T11:55:06.351Z,0.80
2023-03-28T11:57:54.053Z,0.50
2023-03-28T12:00:40.970Z,0.50
2023-03-28T12:03:33.437Z,0.50
2023-03-28T12:06:20.464Z,0.47
2023-03-28T12:09:05.616Z,0.77
2023-03-28T12:11:56.817Z,0.50
2023-03-28T12:14:47.049Z,1.00
2023-03-28T12:17:51.670Z,0.80
2023-03-28T12:20:38.675Z,1.00
2023-03-28T12:23:32.104Z,0.70
2023-03-28T12:26:56.065Z,0.60
2023-03-28T12:29:44.787Z,0.73
2023-03-28T12:32:34.269Z,0.60
2023-03-28T12:35:23.241Z,0.77
2023-03-28T12:38:22.990Z,0.70
2023-03-28T12:41:16.348Z,0.80
2023-03-28T12:44:00.321Z,0.80
2023-03-28T12:46:53.126Z,0.88
2023-03-28T12:49:41.561Z,0.80
2023-03-28T12:52:28.206Z,0.75
2023-03-28T12:55:27.164Z,0.80
2023-03-28T12:58:14.964Z,0.70
2023-03-28T13:01:41.200Z,1.00
2023-03-28T13:04:46.383Z,0.80
2023-03-28T13:07:39.633Z,0.90
2023-03-28T13:10:25.222Z,0.88
2023-03-28T13:13:14.453Z,1.02
2023-03-28T13:16:02.967Z,0.70
2023-03-28T13:18:47.743Z,0.85
2023-03-28T13:21:44.791Z,0.80
2023-03-28T13:24:31.736Z,0.40
2023-03-28T13:27:17.741Z,0.70
2023-03-28T13:30:03.562Z,0.77
2023-03-28T13:32:47.170Z,1.00
2023-03-28T13:35:37.354Z,0.80
2023-03-28T13:38:25.584Z,0.90
2023-03-28T13:41:09.827Z,0.85
2023-03-28T13:43:59.014Z,0.80
2023-03-28T13:46:43.697Z,0.80
2023-03-28T13:49:32.929Z,0.90
2023-03-28T13:52:16.555Z,0.90
2023-03-28T13:55:04.755Z,1.17
2023-03-28T13:57:48.525Z,0.82
2023-03-28T14:00:32.105Z,1.00
2023-03-28T14:03:16.292Z,0.93
2023-03-28T14:05:59.027Z,0.90
2023-03-28T14:08:46.428Z,0.80
2023-03-28T14:11:32.218Z,1.02
2023-03-28T14:14:16.617Z,0.88
2023-03-28T14:17:01.577Z,0.70
2023-03-28T14:19:46.474Z,0.82
2023-03-28T14:22:29.783Z,0.98
2023-03-28T14:25:14.609Z,0.90
2023-03-28T14:28:06.728Z,0.70
2023-03-28T14:30:49.353Z,0.75
2023-03-28T14:33:34.175Z,0.80
2023-03-28T14:36:18.488Z,0.95
2023-03-28T14:39:13.403Z,0.90
2023-03-28T14:41:57.224Z,0.90
2023-03-28T14:44:43.104Z,0.95
2023-03-28T14:47:27.959Z,0.80
2023-03-28T14:50:14.142Z,1.17
2023-03-28T14:53:01.136Z,0.90
2023-03-28T14:55:44.383Z,0.95
2023-03-28T14:58:28.216Z,0.95
2023-03-28T15:01:15.479Z,0.90
2023-03-28T15:03:59.487Z,1.25
2023-03-28T15:06:42.259Z,1.02
2023-03-28T15:09:28.083Z,1.20
2023-03-28T15:12:16.329Z,0.80
2023-03-28T15:14:59.046Z,0.93
2023-03-28T15:17:43.462Z,1.15
2023-03-28T15:20:27.715Z,1.15
2023-03-28T15:23:15.531Z,0.93
2023-03-28T15:26:00.409Z,1.20
2023-03-28T15:28:43.016Z,1.23
2023-03-28T15:31:26.244Z,1.05
2023-03-28T15:34:11.809Z,0.93
2023-03-28T15:36:58.742Z,1.15
2023-03-28T15:39:42.486Z,1.00
2023-03-28T15:42:42.774Z,1.05
2023-03-28T15:45:37.280Z,1.10
2023-03-28T15:48:21.136Z,1.10
2023-03-28T15:51:06.139Z,1.10
2023-03-28T15:53:50.086Z,0.77
2023-03-28T15:56:33.966Z,1.00
2023-03-28T15:59:23.411Z,1.13
2023-03-28T16:02:30.881Z,1.10
2023-03-28T16:05:27.004Z,0.80
2023-03-28T16:08:22.261Z,1.10
2023-03-28T16:11:06.371Z,1.20
2023-03-28T16:13:51.868Z,1.00
2023-03-28T16:16:59.430Z,0.88
2023-03-28T16:19:51.297Z,1.25
2023-03-28T16:22:33.885Z,1.65
2023-03-28T16:25:18.015Z,1.33
2023-03-28T16:28:00.599Z,1.05
2023-03-28T16:30:43.286Z,1.30
2023-03-28T16:33:25.912Z,1.10
2023-03-28T16:36:09.106Z,1.00
2023-03-28T16:38:51.713Z,1.20
2023-03-28T16:41:35.841Z,1.30
2023-03-28T16:44:18.432Z,1.02
2023-03-28T16:47:02.214Z,1.20
2023-03-28T16:49:44.806Z,1.00
2023-03-28T16:52:29.251Z,1.10
2023-03-28T16:55:13.482Z,0.98
2023-03-28T16:57:57.493Z,1.10
2023-03-28T17:00:48.970Z,0.93
2023-03-28T17:03:31.744Z,1.30
2023-03-28T17:06:14.876Z,0.95
2023-03-28T17:08:58.747Z,1.20
2023-03-28T17:11:42.778Z,0.80
2023-03-28T17:14:27.241Z,0.98
2023-03-28T17:17:09.970Z,1.10
2023-03-28T17:19:52.995Z,1.05
2023-03-28T17:22:36.146Z,0.80
2023-03-28T17:25:18.976Z,1.00
2023-03-28T17:28:02.082Z,0.98
2023-03-28T17:30:46.201Z,1.17
2023-03-28T17:33:31.159Z,0.80
2023-03-28T17:36:21.053Z,1.20
2023-03-28T17:39:04.443Z,1.08
2023-03-28T17:41:47.247Z,1.30
2023-03-28T17:44:29.906Z,1.30
2023-03-28T17:47:13.964Z,1.30
2023-03-28T17:49:57.110Z,1.30
2023-03-28T17:52:39.797Z,1.48
2023-03-28T17:55:22.410Z,1.40
2023-03-28T17:58:05.022Z,1.13
2023-03-28T18:00:47.668Z,1.08
2023-03-28T18:03:32.329Z,1.20
2023-03-28T18:06:41.845Z,1.25
2023-03-28T18:09:24.743Z,1.08
2023-03-28T18:12:07.384Z,0.93
2023-03-28T18:14:50.105Z,1.42
2023-03-28T18:17:32.965Z,1.40
2023-03-28T18:20:17.299Z,1.30
2023-03-28T18:23:00.310Z,1.33
2023-03-28T18:25:43.324Z,1.30
2023-03-28T18:28:26.536Z,1.30
2023-03-28T18:31:10.446Z,1.35
2023-03-28T18:33:53.603Z,1.13
2023-03-28T18:36:40.509Z,1.20
2023-03-28T18:39:24.054Z,1.30
2023-03-28T18:42:07.497Z,1.10
2023-03-28T18:44:50.098Z,1.25
2023-03-28T18:47:33.201Z,1.38
2023-03-28T18:50:16.040Z,1.30
2023-03-28T18:53:00.120Z,1.27
2023-03-28T18:55:42.944Z,1.20
2023-03-28T18:58:26.244Z,1.08
2023-03-28T19:01:10.177Z,1.75
2023-03-28T19:03:53.035Z,1.85
2023-03-28T19:06:36.314Z,1.10
2023-03-28T19:09:21.221Z,1.23
2023-03-28T19:12:04.042Z,1.20
2023-03-28T19:14:46.865Z,1.13
2023-03-28T19:17:29.874Z,1.13
2023-03-28T19:20:13.650Z,1.20
2023-03-28T19:22:56.723Z,1.23
2023-03-28T19:25:40.939Z,1.67
2023-03-28T19:28:24.099Z,1.48
2023-03-28T19:31:08.356Z,1.10
2023-03-28T19:33:51.295Z,1.52
2023-03-28T19:36:34.104Z,1.63
2023-03-28T19:39:17.070Z,1.77
2023-03-28T19:42:01.357Z,1.00
2023-03-28T19:44:44.035Z,1.30
2023-03-28T19:47:27.115Z,1.30
2023-03-28T19:50:11.542Z,1.42
2023-03-28T19:52:54.343Z,1.35
2023-03-28T19:55:37.364Z,1.23
2023-03-28T19:58:22.012Z,1.33
2023-03-28T20:01:05.204Z,1.52
2023-03-28T20:03:52.382Z,1.30
2023-03-28T20:06:35.028Z,1.40
2023-03-28T20:09:17.733Z,1.30
2023-03-28T20:12:00.370Z,1.58
2023-03-28T20:14:44.552Z,1.25
2023-03-28T20:17:27.258Z,1.33
2023-03-28T20:20:10.802Z,1.35
2023-03-28T20:22:53.496Z,1.30
2023-03-28T20:25:36.846Z,1.40
2023-03-28T20:28:20.911Z,1.30
2023-03-28T20:31:05.367Z,1.52
2023-03-28T20:33:48.155Z,1.50
2023-03-28T20:36:32.772Z,1.35
2023-03-28T20:39:15.390Z,1.45
2023-03-28T20:42:02.936Z,1.50
2023-03-28T20:44:45.767Z,1.23
2023-03-28T20:47:30.328Z,1.33
2023-03-28T20:50:12.996Z,1.55
2023-03-28T20:52:55.678Z,1.55
2023-03-28T20:55:38.805Z,1.20
2023-03-28T20:58:21.515Z,1.50
2023-03-28T21:01:04.956Z,1.27
2023-03-28T21:03:49.689Z,1.52
2023-03-28T21:06:34.792Z,1.38
2023-03-28T21:09:18.101Z,1.25
2023-03-28T21:12:01.044Z,1.58
2023-03-28T21:14:43.873Z,1.45
2023-03-28T21:17:26.624Z,1.70
2023-03-28T21:20:11.404Z,1.50
2023-03-28T21:22:54.110Z,1.40
2023-03-28T21:25:36.987Z,1.58
2023-03-28T21:28:19.621Z,1.60
2023-03-28T21:31:03.547Z,1.77
2023-03-28T21:33:46.680Z,1.85
2023-03-28T21:36:30.864Z,1.60
2023-03-28T21:39:13.752Z,1.67
2023-03-28T21:41:57.442Z,1.40
2023-03-28T21:44:40.088Z,1.80
2023-03-28T21:47:22.720Z,1.60
2023-03-28T21:50:05.830Z,1.35
2023-03-28T21:52:49.891Z,1.60
2023-03-28T21:55:32.611Z,1.50
2023-03-28T21:58:15.632Z,1.30
2023-03-28T22:00:58.342Z,1.50
2023-03-28T22:03:41.117Z,1.70
2023-03-28T22:06:23.825Z,1.60
2023-03-28T22:09:07.937Z,1.60
2023-03-28T22:11:50.557Z,1.30
2023-03-28T22:14:33.212Z,1.38
2023-03-28T22:17:15.776Z,1.50
2023-03-28T22:20:01.493Z,1.33
2023-03-28T22:22:44.978Z,1.35
2023-03-28T22:25:34.557Z,1.58
2023-03-28T22:28:18.690Z,1.60
2023-03-28T22:31:01.569Z,1.60
2023-03-28T22:33:44.346Z,1.50
2023-03-28T22:36:27.333Z,1.73
2023-03-28T22:39:10.192Z,1.92
2023-03-28T22:41:54.714Z,1.40
2023-03-28T22:44:37.466Z,1.75
2023-03-28T22:47:20.049Z,1.40
2023-03-28T22:50:04.347Z,1.90
2023-03-28T22:52:50.271Z,1.75
2023-03-28T22:55:33.287Z,1.60
2023-03-28T22:58:17.804Z,1.77
2023-03-28T23:01:00.685Z,1.67
2023-03-28T23:03:43.596Z,2.05
2023-03-28T23:06:27.160Z,1.80
2023-03-28T23:09:10.148Z,1.80
2023-03-28T23:11:52.834Z,1.85
2023-03-28T23:14:36.858Z,1.98
2023-03-28T23:17:19.765Z,1.80
2023-03-28T23:20:02.383Z,1.90
2023-03-28T23:22:46.326Z,1.90
2023-03-28T23:25:29.030Z,1.58
2023-03-28T23:28:11.576Z,1.65
2023-03-28T23:30:55.532Z,1.75
2023-03-28T23:33:38.209Z,1.92
2023-03-28T23:36:21.242Z,2.03
2023-03-28T23:39:04.109Z,1.90
2023-03-28T23:41:46.813Z,1.73
2023-03-28T23:44:30.688Z,1.80
2023-03-28T23:47:15.287Z,1.90
2023-03-28T23:49:58.063Z,1.90
2023-03-28T23:52:40.878Z,2.00
2023-03-28T23:55:23.474Z,1.80
2023-03-28T23:58:06.711Z,2.03
